KLAN/LAN METAR and TAF weather

Enter ICAO airport designator
Station Type Date Time Source
KLAN METAR 2019/06/17 12:16 UTC NOAA

KLAN 171216Z 08006KT 10SM FEW009 OVC016 13/11 A3002 RMK AO2 T01280111


Station Type Date Time Source
KLAN Decoded METAR 2019/06/17 12:16 UTC NOAA

CAPITAL CITY AIRPORT, MI, United States (KLAN) 42-47N 084-35W 264M
Jun 17, 2019 - 08:16 AM EDT / 2019.06.17 1216 UTC
Wind: from the E (080 degrees) at 7 MPH (6 KT):0
Visibility: 10 mile(s):0
Sky conditions: overcast
Temperature: 55.0 F (12.8 C)
Dew Point: 52.0 F (11.1 C)
Relative Humidity: 89%
Pressure (altimeter): 30.02 in. Hg (1016 hPa)
ob: KLAN 171216Z 08006KT 10SM FEW009 OVC016 13/11 A3002 RMK AO2 T01280111
cycle: 12

Station Type Date Time Source
KLAN TAF 2019/06/17 12:34 UTC NOAA

TAF KLAN 171132Z 1712/1812 05006KT P6SM OVC015
FM171800 08006KT P6SM OVC025
FM172000 06005KT P6SM BKN035
FM180200 04004KT P6SM BKN035
FM180900 VRB03KT 5SM BR OVC025

Example: see airport list